sensor_id;sensor_type;location;lat;lon;timestamp;pressure;altitude;pressure_sealevel;temperature;humidity
74431;BME280;62863;52.062;23.764;2024-03-07T00:04:57;1034.5;;;1.8;66.3
74431;BME280;62863;52.062;23.764;2024-03-07T00:19:51;1034.5;;;1.8;65.6
74431;BME280;62863;52.062;23.764;2024-03-07T00:25:03;1034.5;;;1.9;65.4
74431;BME280;62863;52.062;23.764;2024-03-07T00:29:51;1034.5;;;1.9;65.2
74431;BME280;62863;52.062;23.764;2024-03-07T00:34:47;1034.5;;;1.9;65.2
74431;BME280;62863;52.062;23.764;2024-03-07T00:39:31;1034.4;;;1.9;65.4
74431;BME280;62863;52.062;23.764;2024-03-07T00:44:47;1034.4;;;1.9;64.9
74431;BME280;62863;52.062;23.764;2024-03-07T00:50:03;1034.4;;;1.9;64.9
74431;BME280;62863;52.062;23.764;2024-03-07T00:54:31;1034.4;;;1.9;64.7
74431;BME280;62863;52.062;23.764;2024-03-07T01:00:01;1034.4;;;1.9;64.7
74431;BME280;62863;52.062;23.764;2024-03-07T01:04:49;1034.4;;;1.9;64.9
74431;BME280;62863;52.062;23.764;2024-03-07T01:10:12;1034.4;;;1.9;64.9
74431;BME280;62863;52.062;23.764;2024-03-07T01:14:49;1034.4;;;1.9;64.9
74431;BME280;62863;52.062;23.764;2024-03-07T01:20:11;1034.4;;;1.8;64.2
74431;BME280;62863;52.062;23.764;2024-03-07T01:24:45;1034.4;;;1.8;64.2
74431;BME280;62863;52.062;23.764;2024-03-07T01:29:59;1034.4;;;1.6;64
74431;BME280;62863;52.062;23.764;2024-03-07T01:34:39;1034.4;;;1.6;63.9
74431;BME280;62863;52.062;23.764;2024-03-07T01:39:57;1034.4;;;1.5;63.7
74431;BME280;62863;52.062;23.764;2024-03-07T01:44:59;1034.4;;;1.4;63.7
74431;BME280;62863;52.062;23.764;2024-03-07T01:49:59;1034.4;;;1.2;64
74431;BME280;62863;52.062;23.764;2024-03-07T01:54:51;1034.5;;;1;64.2
74431;BME280;62863;52.062;23.764;2024-03-07T02:00:11;1034.5;;;0.7;65
74431;BME280;62863;52.062;23.764;2024-03-07T02:05:11;1034.4;;;0.5;65.1
74431;BME280;62863;52.062;23.764;2024-03-07T02:10:03;1034.4;;;0.5;65.1
74431;BME280;62863;52.062;23.764;2024-03-07T02:14:31;1034.5;;;0.3;65.6
74431;BME280;62863;52.062;23.764;2024-03-07T02:19:39;1034.5;;;0.3;66
74431;BME280;62863;52.062;23.764;2024-03-07T02:24:37;1034.5;;;0.1;66.7
74431;BME280;62863;52.062;23.764;2024-03-07T02:29:31;1034.5;;;0;67.6
74431;BME280;62863;52.062;23.764;2024-03-07T02:34:37;1034.5;;;-0.1;67.9
74431;BME280;62863;52.062;23.764;2024-03-07T02:40:01;1034.5;;;-0.1;67.9
74431;BME280;62863;52.062;23.764;2024-03-07T02:44:39;1034.6;;;-0.2;67.9
74431;BME280;62863;52.062;23.764;2024-03-07T02:49:37;1034.6;;;-0.3;68.1
74431;BME280;62863;52.062;23.764;2024-03-07T02:55:09;1034.6;;;-0.4;68.6
74431;BME280;62863;52.062;23.764;2024-03-07T03:00:01;1034.6;;;-0.4;68.6
74431;BME280;62863;52.062;23.764;2024-03-07T03:04:51;1034.6;;;-0.4;68.7
74431;BME280;62863;52.062;23.764;2024-03-07T03:09:43;1034.6;;;-0.5;69.2
74431;BME280;62863;52.062;23.764;2024-03-07T03:14:55;1034.6;;;-0.5;69.9
74431;BME280;62863;52.062;23.764;2024-03-07T03:19:57;1034.7;;;-0.6;70
74431;BME280;62863;52.062;23.764;2024-03-07T03:24:43;1034.6;;;-0.6;70
74431;BME280;62863;52.062;23.764;2024-03-07T03:29:49;1034.6;;;-0.6;70
74431;BME280;62863;52.062;23.764;2024-03-07T03:34:33;1034.7;;;-0.7;70.1
74431;BME280;62863;52.062;23.764;2024-03-07T03:40:07;1034.7;;;-0.8;70.3
74431;BME280;62863;52.062;23.764;2024-03-07T03:44:39;1034.7;;;-0.8;70.3
74431;BME280;62863;52.062;23.764;2024-03-07T03:49:57;1034.8;;;-0.9;70.5
74431;BME280;62863;52.062;23.764;2024-03-07T03:54:31;1034.8;;;-0.9;70.4
74431;BME280;62863;52.062;23.764;2024-03-07T03:59:42;1034.8;;;-0.9;70.4
74431;BME280;62863;52.062;23.764;2024-03-07T04:04:39;1034.8;;;-1;70.4
74431;BME280;62863;52.062;23.764;2024-03-07T04:09:45;1034.8;;;-1;70.8
74431;BME280;62863;52.062;23.764;2024-03-07T04:14:39;1034.8;;;-1;71.1
74431;BME280;62863;52.062;23.764;2024-03-07T04:20:11;1034.9;;;-1.1;71.1
74431;BME280;62863;52.062;23.764;2024-03-07T04:25:03;1034.9;;;-1.1;71.1
74431;BME280;62863;52.062;23.764;2024-03-07T04:30:09;1034.9;;;-1.1;71
74431;BME280;62863;52.062;23.764;2024-03-07T04:35:11;1034.9;;;-1.1;71.1
74431;BME280;62863;52.062;23.764;2024-03-07T04:39:53;1034.9;;;-1.1;71.1
74431;BME280;62863;52.062;23.764;2024-03-07T04:44:31;1034.9;;;-1.2;70.9
74431;BME280;62863;52.062;23.764;2024-03-07T04:49:55;1034.8;;;-1.2;70.8
74431;BME280;62863;52.062;23.764;2024-03-07T04:54:57;1034.8;;;-1.3;70.8
74431;BME280;62863;52.062;23.764;2024-03-07T04:59:37;1034.8;;;-1.3;71.1
74431;BME280;62863;52.062;23.764;2024-03-07T05:04:55;1034.9;;;-1.3;71.3
74431;BME280;62863;52.062;23.764;2024-03-07T05:10:03;1034.9;;;-1.3;71.7
74431;BME280;62863;52.062;23.764;2024-03-07T05:15:09;1034.9;;;-1.2;71.8
74431;BME280;62863;52.062;23.764;2024-03-07T05:19:51;1034.9;;;-1.2;71.8
74431;BME280;62863;52.062;23.764;2024-03-07T05:24:57;1035;;;-1;71.4
74431;BME280;62863;52.062;23.764;2024-03-07T05:30:09;1035;;;-0.9;70.3
74431;BME280;62863;52.062;23.764;2024-03-07T05:34:31;1035;;;-0.9;70.3
74431;BME280;62863;52.062;23.764;2024-03-07T05:39:31;1035.1;;;-0.8;69.9
74431;BME280;62863;52.062;23.764;2024-03-07T05:44:31;1035.1;;;-0.6;69.5
74431;BME280;62863;52.062;23.764;2024-03-07T05:49:31;1035.2;;;-0.4;68.9
74431;BME280;62863;52.062;23.764;2024-03-07T05:55:09;1035.2;;;1;65.7
74431;BME280;62863;52.062;23.764;2024-03-07T06:00:03;1035.2;;;1;65.7
74431;BME280;62863;52.062;23.764;2024-03-07T06:05:09;1035;;;6.3;53.9
74431;BME280;62863;52.062;23.764;2024-03-07T06:10:11;1034.8;;;8.7;48.9
74431;BME280;62863;52.062;23.764;2024-03-07T06:15:03;1034.8;;;8.7;48.9
74431;BME280;62863;52.062;23.764;2024-03-07T06:20:13;1034.8;;;12.5;42.6
74431;BME280;62863;52.062;23.764;2024-03-07T06:25:13;1034.7;;;14.3;40.5
74431;BME280;62863;52.062;23.764;2024-03-07T06:29:45;1034.7;;;14.3;40.5
74431;BME280;62863;52.062;23.764;2024-03-07T06:34:59;1034.7;;;15.9;36.9
74431;BME280;62863;52.062;23.764;2024-03-07T06:39:57;1034.7;;;17.2;33
74431;BME280;62863;52.062;23.764;2024-03-07T06:45:03;1034.7;;;18.4;30.6
74431;BME280;62863;52.062;23.764;2024-03-07T06:50:13;1034.6;;;19.6;27.3
74431;BME280;62863;52.062;23.764;2024-03-07T06:54:31;1034.6;;;19.6;27.3
74431;BME280;62863;52.062;23.764;2024-03-07T06:59:53;1034.7;;;19.7;26.3
74431;BME280;62863;52.062;23.764;2024-03-07T07:04:51;1034.7;;;20.2;25.8
74431;BME280;62863;52.062;23.764;2024-03-07T07:09:39;1034.7;;;20.3;25.9
74431;BME280;62863;52.062;23.764;2024-03-07T07:15:01;1034.6;;;21.4;25.5
74431;BME280;62863;52.062;23.764;2024-03-07T07:19:31;1034.7;;;21.8;23.6
74431;BME280;62863;52.062;23.764;2024-03-07T07:29:56;1034.7;;;21;23.3
74431;BME280;62863;52.062;23.764;2024-03-07T07:39:41;1034.7;;;19.9;23.5
74431;BME280;62863;52.062;23.764;2024-03-07T07:45:11;1034.8;;;19.8;24.3
74431;BME280;62863;52.062;23.764;2024-03-07T07:49:31;1034.8;;;19.8;24.3
74431;BME280;62863;52.062;23.764;2024-03-07T07:55:11;1034.8;;;19.9;24.2
74431;BME280;62863;52.062;23.764;2024-03-07T07:59:39;1034.8;;;19.9;24.2
74431;BME280;62863;52.062;23.764;2024-03-07T08:35:11;1034.8;;;16.3;26.2
74431;BME280;62863;52.062;23.764;2024-03-07T08:40:13;1034.9;;;14.9;27.1
74431;BME280;62863;52.062;23.764;2024-03-07T08:44:51;1034.9;;;14.9;27.1
74431;BME280;62863;52.062;23.764;2024-03-07T08:49:39;1034.9;;;13.6;28.5
74431;BME280;62863;52.062;23.764;2024-03-07T08:54:39;1034.9;;;13.4;29
74431;BME280;62863;52.062;23.764;2024-03-07T09:00:01;1034.9;;;13.1;29.2
74431;BME280;62863;52.062;23.764;2024-03-07T09:04:39;1034.9;;;12.9;29.7
74431;BME280;62863;52.062;23.764;2024-03-07T09:10:03;1034.9;;;11.7;30.9
74431;BME280;62863;52.062;23.764;2024-03-07T09:14:47;1035;;;10.3;33.6
74431;BME280;62863;52.062;23.764;2024-03-07T09:20:13;1035;;;8.4;35.8
74431;BME280;62863;52.062;23.764;2024-03-07T09:24:31;1035;;;8.4;35.8
74431;BME280;62863;52.062;23.764;2024-03-07T09:30:13;1035;;;8;37.4
74431;BME280;62863;52.062;23.764;2024-03-07T09:34:47;1035;;;8;37.4
74431;BME280;62863;52.062;23.764;2024-03-07T09:40:13;1035;;;7.8;37.6
74431;BME280;62863;52.062;23.764;2024-03-07T09:44:31;1035;;;7.8;37.6
74431;BME280;62863;52.062;23.764;2024-03-07T09:49:59;1035;;;7.3;38.5
74431;BME280;62863;52.062;23.764;2024-03-07T09:55:01;1035;;;7.3;38.7
74431;BME280;62863;52.062;23.764;2024-03-07T10:00:01;1035;;;7.1;39.2
74431;BME280;62863;52.062;23.764;2024-03-07T10:04:51;1035;;;7.2;39
74431;BME280;62863;52.062;23.764;2024-03-07T10:10:11;1034.9;;;7.2;39.3
74431;BME280;62863;52.062;23.764;2024-03-07T10:14:55;1034.9;;;7.2;39.3
74431;BME280;62863;52.062;23.764;2024-03-07T10:19:59;1034.8;;;7.5;39.2
74431;BME280;62863;52.062;23.764;2024-03-07T10:24:31;1034.8;;;7.4;38.9
74431;BME280;62863;52.062;23.764;2024-03-07T10:29:41;1034.8;;;7.1;39.1
74431;BME280;62863;52.062;23.764;2024-03-07T10:34:47;1034.8;;;7.1;39.6
74431;BME280;62863;52.062;23.764;2024-03-07T10:39:39;1034.7;;;7.2;39.5
74431;BME280;62863;52.062;23.764;2024-03-07T10:44:59;1034.7;;;7.7;39.6
74431;BME280;62863;52.062;23.764;2024-03-07T10:49:37;1034.7;;;7.6;38.8
74431;BME280;62863;52.062;23.764;2024-03-07T10:54:34;1034.7;;;7.7;38.5
74431;BME280;62863;52.062;23.764;2024-03-07T10:59:50;1034.7;;;7.7;38.9
74431;BME280;62863;52.062;23.764;2024-03-07T11:05:11;1034.7;;;7.6;38.9
74431;BME280;62863;52.062;23.764;2024-03-07T11:09:53;1034.7;;;7.6;38.9
74431;BME280;62863;52.062;23.764;2024-03-07T11:14:43;1034.6;;;7.7;39
74431;BME280;62863;52.062;23.764;2024-03-07T11:19:47;1034.6;;;7.5;38.8
74431;BME280;62863;52.062;23.764;2024-03-07T11:24:33;1034.6;;;7.6;38.9
74431;BME280;62863;52.062;23.764;2024-03-07T11:30:04;1034.5;;;7.6;39.1
74431;BME280;62863;52.062;23.764;2024-03-07T11:34:47;1034.5;;;7.8;39.2
74431;BME280;62863;52.062;23.764;2024-03-07T11:39:47;1034.4;;;8;38.5
74431;BME280;62863;52.062;23.764;2024-03-07T11:45:01;1034.3;;;8.3;38.7
74431;BME280;62863;52.062;23.764;2024-03-07T11:50:13;1034.3;;;8.3;37.5
74431;BME280;62863;52.062;23.764;2024-03-07T11:54:43;1034.3;;;8.3;37.5
74431;BME280;62863;52.062;23.764;2024-03-07T12:00:02;1034.2;;;8.1;38.2
74431;BME280;62863;52.062;23.764;2024-03-07T12:04:49;1034.2;;;8.1;38.4
74431;BME280;62863;52.062;23.764;2024-03-07T12:09:31;1034.2;;;8.1;38.1
74431;BME280;62863;52.062;23.764;2024-03-07T12:14:39;1034.1;;;8.3;38.4
74431;BME280;62863;52.062;23.764;2024-03-07T12:19:39;1034.1;;;8.5;37.9
74431;BME280;62863;52.062;23.764;2024-03-07T12:24:31;1034;;;8.9;37.8
74431;BME280;62863;52.062;23.764;2024-03-07T12:30:14;1034;;;9;37
74431;BME280;62863;52.062;23.764;2024-03-07T12:35:04;1034;;;9;37
74431;BME280;62863;52.062;23.764;2024-03-07T12:40:13;1033.9;;;8.8;36.8
74431;BME280;62863;52.062;23.764;2024-03-07T12:45:05;1033.9;;;8.8;36.8
74431;BME280;62863;52.062;23.764;2024-03-07T12:49:39;1033.9;;;8.7;37
74431;BME280;62863;52.062;23.764;2024-03-07T12:55:13;1033.9;;;8.7;37.3
74431;BME280;62863;52.062;23.764;2024-03-07T13:00:13;1033.8;;;8.6;36.9
74431;BME280;62863;52.062;23.764;2024-03-07T13:04:53;1033.8;;;8.6;36.9
74431;BME280;62863;52.062;23.764;2024-03-07T13:09:47;1033.8;;;8.5;37.4
74431;BME280;62863;52.062;23.764;2024-03-07T13:15:03;1033.8;;;8.3;37.6
74431;BME280;62863;52.062;23.764;2024-03-07T13:20:01;1033.8;;;8.2;37.9
74431;BME280;62863;52.062;23.764;2024-03-07T13:24:57;1033.8;;;8.1;38.2
74431;BME280;62863;52.062;23.764;2024-03-07T13:29:39;1033.7;;;8.1;38.4
74431;BME280;62863;52.062;23.764;2024-03-07T13:35:01;1033.7;;;8.1;38.6
74431;BME280;62863;52.062;23.764;2024-03-07T13:39:31;1033.7;;;8.3;38.3
74431;BME280;62863;52.062;23.764;2024-03-07T13:45:01;1033.6;;;8.5;37.9
74431;BME280;62863;52.062;23.764;2024-03-07T13:49:39;1033.6;;;8.6;38
74431;BME280;62863;52.062;23.764;2024-03-07T13:55:01;1033.6;;;8.7;38.3
74431;BME280;62863;52.062;23.764;2024-03-07T13:59:37;1033.6;;;8.5;38.4
74431;BME280;62863;52.062;23.764;2024-03-07T14:05:23;1033.4;;;8.8;38
74431;BME280;62863;52.062;23.764;2024-03-07T14:10:15;1033.4;;;8.8;38
74431;BME280;62863;52.062;23.764;2024-03-07T14:25:23;1033.4;;;8.8;38.8
74431;BME280;62863;52.062;23.764;2024-03-07T14:29:51;1033.4;;;8.9;38.3
74431;BME280;62863;52.062;23.764;2024-03-07T14:35:13;1033.3;;;8.9;38.1
74431;BME280;62863;52.062;23.764;2024-03-07T14:39:33;1033.3;;;8.9;38.1
74431;BME280;62863;52.062;23.764;2024-03-07T14:44:39;1033.4;;;8.7;38.3
74431;BME280;62863;52.062;23.764;2024-03-07T14:49:59;1033.4;;;8.4;38.6
74431;BME280;62863;52.062;23.764;2024-03-07T14:55:03;1033.4;;;8.3;38.7
74431;BME280;62863;52.062;23.764;2024-03-07T15:00:11;1033.4;;;8.2;39.5
74431;BME280;62863;52.062;23.764;2024-03-07T15:04:51;1033.4;;;8.2;39.5
74431;BME280;62863;52.062;23.764;2024-03-07T15:10:14;1033.3;;;7.8;39.9
74431;BME280;62863;52.062;23.764;2024-03-07T15:14:51;1033.3;;;7.8;39.9
74431;BME280;62863;52.062;23.764;2024-03-07T15:19:57;1033.3;;;7.6;40.1
74431;BME280;62863;52.062;23.764;2024-03-07T15:24:43;1033.3;;;7.3;40.3
74431;BME280;62863;52.062;23.764;2024-03-07T15:29:32;1033.3;;;7.1;40.8
74431;BME280;62863;52.062;23.764;2024-03-07T15:34:51;1033.3;;;7;40.9
74431;BME280;62863;52.062;23.764;2024-03-07T15:39:45;1033.2;;;6.8;41.9
74431;BME280;62863;52.062;23.764;2024-03-07T15:45:01;1033.2;;;6.6;42.1
74431;BME280;62863;52.062;23.764;2024-03-07T15:49:31;1033.2;;;6.4;42.4
74431;BME280;62863;52.062;23.764;2024-03-07T15:55:11;1033.2;;;6;43.2
74431;BME280;62863;52.062;23.764;2024-03-07T15:59:49;1033.2;;;6;43.2
74431;BME280;62863;52.062;23.764;2024-03-07T16:05:13;1033.2;;;5.5;44.2
74431;BME280;62863;52.062;23.764;2024-03-07T16:10:13;1033.2;;;5.3;45.3
74431;BME280;62863;52.062;23.764;2024-03-07T16:15:01;1033.2;;;5.3;45.3
74431;BME280;62863;52.062;23.764;2024-03-07T16:19:47;1033.3;;;5;46.1
74431;BME280;62863;52.062;23.764;2024-03-07T16:24:59;1033.3;;;4.8;46.8
74431;BME280;62863;52.062;23.764;2024-03-07T16:30:14;1033.4;;;4.2;49.7
74431;BME280;62863;52.062;23.764;2024-03-07T16:35:02;1033.4;;;4.2;49.7
74431;BME280;62863;52.062;23.764;2024-03-07T16:39:43;1033.5;;;4;50.9
74431;BME280;62863;52.062;23.764;2024-03-07T16:45:12;1033.5;;;3.5;53
74431;BME280;62863;52.062;23.764;2024-03-07T16:50:13;1033.5;;;3.4;54.2
74431;BME280;62863;52.062;23.764;2024-03-07T16:55:04;1033.5;;;3.4;54.2
74431;BME280;62863;52.062;23.764;2024-03-07T16:59:31;1033.5;;;3.2;55.1
74431;BME280;62863;52.062;23.764;2024-03-07T17:04:31;1033.5;;;3;55.5
74431;BME280;62863;52.062;23.764;2024-03-07T17:09:31;1033.5;;;2.9;56.1
74431;BME280;62863;52.062;23.764;2024-03-07T17:14:33;1033.5;;;2.7;56.7
74431;BME280;62863;52.062;23.764;2024-03-07T17:19:31;1033.5;;;2.5;57.3
74431;BME280;62863;52.062;23.764;2024-03-07T17:24:31;1033.5;;;2.4;58.1
74431;BME280;62863;52.062;23.764;2024-03-07T17:29:33;1033.5;;;2.2;58.2
74431;BME280;62863;52.062;23.764;2024-03-07T17:34:51;1033.5;;;2.1;59.6
74431;BME280;62863;52.062;23.764;2024-03-07T17:40:12;1033.5;;;1.9;61.2
74431;BME280;62863;52.062;23.764;2024-03-07T17:44:45;1033.5;;;1.9;61.2
74431;BME280;62863;52.062;23.764;2024-03-07T17:49:59;1033.5;;;1.8;61.3
74431;BME280;62863;52.062;23.764;2024-03-07T17:54:45;1033.5;;;1.7;61.1
74431;BME280;62863;52.062;23.764;2024-03-07T17:59:55;1033.4;;;1.6;61
74431;BME280;62863;52.062;23.764;2024-03-07T18:05:09;1033.5;;;1.4;61.8
74431;BME280;62863;52.062;23.764;2024-03-07T18:09:39;1033.5;;;1.4;61.8
74431;BME280;62863;52.062;23.764;2024-03-07T18:14:49;1033.5;;;1.3;62.2
74431;BME280;62863;52.062;23.764;2024-03-07T18:19:57;1033.4;;;1.2;62.5
74431;BME280;62863;52.062;23.764;2024-03-07T18:25:09;1033.5;;;1;63.3
74431;BME280;62863;52.062;23.764;2024-03-07T18:29:51;1033.5;;;1;63.3
74431;BME280;62863;52.062;23.764;2024-03-07T18:34:49;1033.5;;;1;63.5
74431;BME280;62863;52.062;23.764;2024-03-07T18:39:37;1033.5;;;0.9;63.8
74431;BME280;62863;52.062;23.764;2024-03-07T18:44:37;1033.5;;;0.9;64.1
74431;BME280;62863;52.062;23.764;2024-03-07T18:49:39;1033.5;;;0.8;63.7
74431;BME280;62863;52.062;23.764;2024-03-07T18:54:32;1033.5;;;0.8;63.9
74431;BME280;62863;52.062;23.764;2024-03-07T18:59:45;1033.5;;;0.7;64.1
74431;BME280;62863;52.062;23.764;2024-03-07T19:04:55;1033.5;;;0.6;63.9
74431;BME280;62863;52.062;23.764;2024-03-07T19:09:41;1033.5;;;0.5;63.9
74431;BME280;62863;52.062;23.764;2024-03-07T19:15:09;1033.5;;;0.3;64.1
74431;BME280;62863;52.062;23.764;2024-03-07T19:19:59;1033.5;;;0.3;64.1
74431;BME280;62863;52.062;23.764;2024-03-07T19:24:56;1033.6;;;0.3;65
74431;BME280;62863;52.062;23.764;2024-03-07T19:29:31;1033.6;;;0.3;66.3
74431;BME280;62863;52.062;23.764;2024-03-07T19:34:55;1033.6;;;0.2;66.8
74431;BME280;62863;52.062;23.764;2024-03-07T19:39:53;1033.6;;;0.2;66.4
74431;BME280;62863;52.062;23.764;2024-03-07T19:45:08;1033.5;;;0.2;67.1
74431;BME280;62863;52.062;23.764;2024-03-07T19:49:31;1033.5;;;0.2;67.1
74431;BME280;62863;52.062;23.764;2024-03-07T19:54:39;1033.5;;;0.1;67.4
74431;BME280;62863;52.062;23.764;2024-03-07T20:00:10;1033.5;;;0;67
74431;BME280;62863;52.062;23.764;2024-03-07T20:04:49;1033.5;;;0;67
74431;BME280;62863;52.062;23.764;2024-03-07T20:09:59;1033.5;;;-0.1;66.7
74431;BME280;62863;52.062;23.764;2024-03-07T20:14:37;1033.4;;;-0.1;66.7
74431;BME280;62863;52.062;23.764;2024-03-07T20:19:37;1033.4;;;-0.3;66.9
74431;BME280;62863;52.062;23.764;2024-03-07T20:24:49;1033.4;;;-0.4;67.2
74431;BME280;62863;52.062;23.764;2024-03-07T20:29:39;1033.5;;;-0.5;67.9
74431;BME280;62863;52.062;23.764;2024-03-07T20:34:37;1033.4;;;-0.5;68.6
74431;BME280;62863;52.062;23.764;2024-03-07T20:40:10;1033.4;;;-0.6;68.5
74431;BME280;62863;52.062;23.764;2024-03-07T20:45:10;1033.4;;;-0.6;68
74431;BME280;62863;52.062;23.764;2024-03-07T20:50:01;1033.4;;;-0.6;68
74431;BME280;62863;52.062;23.764;2024-03-07T20:55:10;1033.4;;;-0.6;68.1
74431;BME280;62863;52.062;23.764;2024-03-07T20:59:39;1033.4;;;-0.6;68.1
74431;BME280;62863;52.062;23.764;2024-03-07T21:05:09;1033.4;;;-0.6;68.2
74431;BME280;62863;52.062;23.764;2024-03-07T21:10:10;1033.4;;;-0.6;68.6
74431;BME280;62863;52.062;23.764;2024-03-07T21:14:59;1033.4;;;-0.6;68.6
74431;BME280;62863;52.062;23.764;2024-03-07T21:19:59;1033.3;;;-0.7;68.7
74431;BME280;62863;52.062;23.764;2024-03-07T21:25:10;1033.3;;;-0.7;69.8
74431;BME280;62863;52.062;23.764;2024-03-07T21:29:59;1033.3;;;-0.7;69.8
74431;BME280;62863;52.062;23.764;2024-03-07T21:35:08;1033.3;;;-0.7;70.7
74431;BME280;62863;52.062;23.764;2024-03-07T21:39:50;1033.3;;;-0.7;70.7
74431;BME280;62863;52.062;23.764;2024-03-07T21:45:07;1033.2;;;-0.8;70.5
74431;BME280;62863;52.062;23.764;2024-03-07T21:49:37;1033.2;;;-0.8;70.5
74431;BME280;62863;52.062;23.764;2024-03-07T21:54:31;1033.2;;;-0.8;70.5
74431;BME280;62863;52.062;23.764;2024-03-07T21:59:43;1033.2;;;-0.8;70.4
74431;BME280;62863;52.062;23.764;2024-03-07T22:04:45;1033.2;;;-0.9;70.2
74431;BME280;62863;52.062;23.764;2024-03-07T22:09:31;1033.2;;;-0.9;70
74431;BME280;62863;52.062;23.764;2024-03-07T22:15:10;1033.2;;;-1;70.1
74431;BME280;62863;52.062;23.764;2024-03-07T22:19:59;1033.2;;;-1;70.1
74431;BME280;62863;52.062;23.764;2024-03-07T22:25:09;1033.1;;;-1.1;71.2
74431;BME280;62863;52.062;23.764;2024-03-07T22:30:08;1033.1;;;-1.2;71.3
74431;BME280;62863;52.062;23.764;2024-03-07T22:35:10;1033.1;;;-1.2;71.6
74431;BME280;62863;52.062;23.764;2024-03-07T22:40:10;1033.1;;;-1.3;71.5
74431;BME280;62863;52.062;23.764;2024-03-07T22:45:08;1033.1;;;-1.3;71.5
74431;BME280;62863;52.062;23.764;2024-03-07T22:49:47;1033.1;;;-1.3;71.5
74431;BME280;62863;52.062;23.764;2024-03-07T22:54:31;1033.1;;;-1.3;71.2
74431;BME280;62863;52.062;23.764;2024-03-07T22:59:56;1033.1;;;-1.3;70.6
74431;BME280;62863;52.062;23.764;2024-03-07T23:05:01;1033.1;;;-1.4;70.4
74431;BME280;62863;52.062;23.764;2024-03-07T23:10:10;1033.1;;;-1.6;70.6
74431;BME280;62863;52.062;23.764;2024-03-07T23:14:43;1033.1;;;-1.6;70.6
74431;BME280;62863;52.062;23.764;2024-03-07T23:20:10;1033.1;;;-1.7;71.1
74431;BME280;62863;52.062;23.764;2024-03-07T23:24:31;1033.1;;;-1.7;71.1
74431;BME280;62863;52.062;23.764;2024-03-07T23:29:37;1033.1;;;-1.7;71.3
74431;BME280;62863;52.062;23.764;2024-03-07T23:34:37;1033.1;;;-1.8;72
74431;BME280;62863;52.062;23.764;2024-03-07T23:39:31;1033.2;;;-1.8;72
74431;BME280;62863;52.062;23.764;2024-03-07T23:44:44;1033.1;;;-1.8;71.7
74431;BME280;62863;52.062;23.764;2024-03-07T23:49:38;1033.1;;;-1.9;71.9
74431;BME280;62863;52.062;23.764;2024-03-07T23:54:57;1033;;;-1.9;72.1
74431;BME280;62863;52.062;23.764;2024-03-07T23:59:46;1033;;;-1.9;71.9
